Time;durP1;ratioP1;P1;durP2;ratioP2;P2;SDS_P1;SDS_P2;PMS_P1;PMS_P2;Temp;Humidity;BMP_temperature;BMP_pressure;BME280_temperature;BME280_humidity;BME280_pressure;Samples;Min_cycle;Max_cycle;Signal;HPM_P1;HPM_P2
2022/07/31 00:00:49;;;;;;;5.47;2.33;;;;;;;;;;4932625;28;20910;-74
2022/07/31 00:03:14;;;;;;;4.13;2.30;;;;;;;;;;4932691;28;20031;-73
2022/07/31 00:05:42;;;;;;;5.25;2.28;;;;;;;;;;4932006;28;20046;-72
2022/07/31 00:08:07;;;;;;;4.22;2.50;;;;;;;;;;4934822;28;20049;-69
2022/07/31 00:10:33;;;;;;;5.57;2.45;;;;;;;;;;4932185;28;20053;-72
2022/07/31 00:12:58;;;;;;;6.38;2.88;;;;;;;;;;4932481;28;22884;-73
2022/07/31 00:15:26;;;;;;;7.40;3.13;;;;;;;;;;4931754;28;22329;-72
2022/07/31 00:17:54;;;;;;;5.07;2.88;;;;;;;;;;4931347;28;20039;-73
2022/07/31 00:20:19;;;;;;;5.70;3.08;;;;;;;;;;4932457;28;20045;-71
2022/07/31 00:22:46;;;;;;;10.13;5.20;;;;;;;;;;4931220;28;20037;-72
2022/07/31 00:25:12;;;;;;;6.68;4.05;;;;;;;;;;4947017;28;20611;-73
2022/07/31 00:27:38;;;;;;;10.90;3.80;;;;;;;;;;4932116;28;20035;-71
2022/07/31 00:30:11;;;;;;;5.80;3.40;;;;;;;;;;4931353;28;20034;-73
2022/07/31 00:32:39;;;;;;;7.33;3.17;;;;;;;;;;4931512;28;20101;-72
2022/07/31 00:35:07;;;;;;;6.45;3.25;;;;;;;;;;4932493;28;20275;-72
2022/07/31 00:37:34;;;;;;;6.72;3.25;;;;;;;;;;4934020;28;20137;-72
2022/07/31 00:40:02;;;;;;;9.63;3.38;;;;;;;;;;4932470;28;20042;-70
2022/07/31 00:42:28;;;;;;;9.45;3.08;;;;;;;;;;4931811;28;20058;-71
2022/07/31 00:44:53;;;;;;;5.50;2.72;;;;;;;;;;4931214;28;21348;-71
2022/07/31 00:47:18;;;;;;;8.98;3.40;;;;;;;;;;4934674;28;20041;-72
2022/07/31 00:49:47;;;;;;;14.18;9.25;;;;;;;;;;4930987;28;20039;-72
2022/07/31 00:52:12;;;;;;;16.17;12.85;;;;;;;;;;4931161;28;20801;-72
2022/07/31 00:54:40;;;;;;;16.77;13.32;;;;;;;;;;4930860;28;20035;-74
2022/07/31 00:57:07;;;;;;;24.13;18.27;;;;;;;;;;4930935;28;20149;-72
2022/07/31 00:59:33;;;;;;;21.80;19.45;;;;;;;;;;4936242;28;20042;-72
2022/07/31 01:01:59;;;;;;;15.70;10.10;;;;;;;;;;4934925;28;20062;-72
2022/07/31 01:04:25;;;;;;;10.50;8.18;;;;;;;;;;4943749;28;20042;-72
2022/07/31 01:06:50;;;;;;;15.05;7.95;;;;;;;;;;4935476;28;20141;-72
2022/07/31 01:09:15;;;;;;;13.45;9.38;;;;;;;;;;4940383;28;20116;-74
2022/07/31 01:11:41;;;;;;;12.25;6.22;;;;;;;;;;4935430;28;20092;-73
2022/07/31 01:14:07;;;;;;;15.13;5.97;;;;;;;;;;4940572;28;20128;-72
2022/07/31 01:16:34;;;;;;;11.93;7.65;;;;;;;;;;4935548;28;20566;-70
2022/07/31 01:19:03;;;;;;;8.32;5.88;;;;;;;;;;4940387;28;20162;-71
2022/07/31 01:21:35;;;;;;;12.10;7.10;;;;;;;;;;4935329;28;20780;-73
2022/07/31 01:24:10;;;;;;;11.90;7.40;;;;;;;;;;4949226;28;20047;-70
2022/07/31 01:26:42;;;;;;;12.77;7.35;;;;;;;;;;4935624;28;20926;-71
2022/07/31 01:29:18;;;;;;;12.38;5.97;;;;;;;;;;4935109;28;20049;-72
2022/07/31 01:31:56;;;;;;;11.55;5.07;;;;;;;;;;4934360;28;20047;-71
2022/07/31 01:34:24;;;;;;;11.05;4.60;;;;;;;;;;4934411;28;20126;-74
2022/07/31 01:36:58;;;;;;;12.98;5.38;;;;;;;;;;4933926;28;20054;-72
2022/07/31 01:39:23;;;;;;;11.25;4.82;;;;;;;;;;4949065;28;20051;-72
2022/07/31 01:41:49;;;;;;;10.98;4.38;;;;;;;;;;4949974;28;20031;-72
2022/07/31 01:44:18;;;;;;;11.15;4.40;;;;;;;;;;4934858;28;20858;-73
2022/07/31 01:46:47;;;;;;;9.73;4.82;;;;;;;;;;4934630;28;20034;-71
2022/07/31 01:49:13;;;;;;;13.18;4.50;;;;;;;;;;4935053;28;20031;-71
2022/07/31 01:51:38;;;;;;;9.27;4.90;;;;;;;;;;4934959;28;20042;-72
2022/07/31 01:54:04;;;;;;;11.50;7.43;;;;;;;;;;4934350;28;20129;-72
2022/07/31 01:56:30;;;;;;;23.55;15.48;;;;;;;;;;4934186;28;20125;-71
2022/07/31 01:58:57;;;;;;;21.80;18.92;;;;;;;;;;4937288;28;22250;-73
2022/07/31 02:01:23;;;;;;;23.00;19.75;;;;;;;;;;4934622;28;20042;-72
2022/07/31 02:03:49;;;;;;;22.75;17.90;;;;;;;;;;4933961;28;20058;-72
2022/07/31 02:06:17;;;;;;;20.77;15.15;;;;;;;;;;4935646;28;21236;-73
2022/07/31 02:08:48;;;;;;;17.95;9.00;;;;;;;;;;4935384;28;20033;-71
2022/07/31 02:11:14;;;;;;;;;;;;;;;;;;4934596;28;20594;-72
2022/07/31 02:13:42;;;;;;;9.10;4.07;;;;;;;;;;4935086;28;19953;-72
2022/07/31 02:16:07;;;;;;;12.32;4.25;;;;;;;;;;4933977;28;20055;-73
2022/07/31 02:18:36;;;;;;;12.32;6.22;;;;;;;;;;4934168;28;21107;-73
2022/07/31 02:21:01;;;;;;;16.92;12.23;;;;;;;;;;4933682;28;20037;-71
2022/07/31 02:23:27;;;;;;;13.80;12.23;;;;;;;;;;4921799;28;20035;-74
2022/07/31 02:25:52;;;;;;;17.80;12.82;;;;;;;;;;4933117;28;20047;-72
2022/07/31 02:28:19;;;;;;;15.35;9.57;;;;;;;;;;4933799;28;20045;-73
2022/07/31 02:30:45;;;;;;;15.80;9.15;;;;;;;;;;4948224;28;20735;-74
2022/07/31 02:33:23;;;;;;;18.65;12.77;;;;;;;;;;4933601;28;20046;-72
2022/07/31 02:35:51;;;;;;;25.17;15.75;;;;;;;;;;4938764;28;20041;-72
2022/07/31 02:38:18;;;;;;;21.80;12.88;;;;;;;;;;4933264;28;20104;-72
2022/07/31 02:40:43;;;;;;;19.45;14.30;;;;;;;;;;4938927;28;20035;-73
2022/07/31 02:43:10;;;;;;;20.17;14.13;;;;;;;;;;4932644;28;20050;-72
2022/07/31 02:45:38;;;;;;;18.88;13.35;;;;;;;;;;4933996;28;20065;-73
2022/07/31 02:48:04;;;;;;;18.98;11.52;;;;;;;;;;4934135;28;20035;-72
2022/07/31 02:50:29;;;;;;;21.45;11.65;;;;;;;;;;4933041;28;20066;-72
2022/07/31 02:52:57;;;;;;;19.50;9.60;;;;;;;;;;4933903;28;20074;-72
2022/07/31 02:55:23;;;;;;;23.52;11.88;;;;;;;;;;4932351;28;20035;-72
2022/07/31 02:57:50;;;;;;;17.92;12.15;;;;;;;;;;4934373;28;20042;-72
2022/07/31 03:00:21;;;;;;;23.17;14.95;;;;;;;;;;4932264;28;20027;-72
2022/07/31 03:02:46;;;;;;;22.70;14.68;;;;;;;;;;4932956;28;20042;-70
2022/07/31 03:05:14;;;;;;;20.33;14.32;;;;;;;;;;4932255;28;20778;-72
2022/07/31 03:07:39;;;;;;;20.52;14.68;;;;;;;;;;4933387;28;20098;-72
2022/07/31 03:10:05;;;;;;;22.40;15.23;;;;;;;;;;4932842;28;20594;-73
2022/07/31 03:12:31;;;;;;;23.35;11.48;;;;;;;;;;4932362;28;21055;-70
2022/07/31 03:14:56;;;;;;;22.17;15.35;;;;;;;;;;4933283;28;20506;-71
2022/07/31 03:17:22;;;;;;;18.95;14.40;;;;;;;;;;4932312;28;20126;-71
2022/07/31 03:19:48;;;;;;;20.98;14.02;;;;;;;;;;4933182;28;20345;-72
2022/07/31 03:22:13;;;;;;;22.20;9.57;;;;;;;;;;4936611;28;20031;-71
2022/07/31 03:24:38;;;;;;;20.48;15.27;;;;;;;;;;4931945;28;20795;-71
2022/07/31 03:27:04;;;;;;;15.85;8.65;;;;;;;;;;4938256;28;20039;-72
2022/07/31 03:29:38;;;;;;;14.43;6.88;;;;;;;;;;4930791;28;20038;-71
2022/07/31 03:32:05;;;;;;;11.55;5.97;;;;;;;;;;4945543;28;20121;-72
2022/07/31 03:34:30;;;;;;;15.13;6.05;;;;;;;;;;4930456;28;20806;-73
2022/07/31 03:36:55;;;;;;;17.10;6.15;;;;;;;;;;4941842;28;20046;-72
2022/07/31 03:39:20;;;;;;;15.10;5.68;;;;;;;;;;4921555;28;20035;-70
2022/07/31 03:41:46;;;;;;;13.02;5.60;;;;;;;;;;4931503;28;20049;-70
2022/07/31 03:44:14;;;;;;;20.08;5.82;;;;;;;;;;4932655;28;20041;-72
2022/07/31 03:46:40;;;;;;;12.85;5.55;;;;;;;;;;4935655;28;20038;-71
2022/07/31 03:49:06;;;;;;;14.32;6.25;;;;;;;;;;4929953;28;20047;-73
2022/07/31 03:51:32;;;;;;;15.95;6.20;;;;;;;;;;4929575;28;20043;-71
2022/07/31 03:54:00;;;;;;;16.80;5.68;;;;;;;;;;4929232;28;20039;-70
2022/07/31 03:56:26;;;;;;;15.85;6.18;;;;;;;;;;4929482;28;20043;-71
2022/07/31 03:58:53;;;;;;;14.48;6.32;;;;;;;;;;4931190;28;20072;-73
2022/07/31 04:01:21;;;;;;;16.48;5.90;;;;;;;;;;4930514;28;20863;-72
2022/07/31 04:03:47;;;;;;;19.58;6.43;;;;;;;;;;4929651;28;20124;-73
2022/07/31 04:06:12;;;;;;;17.70;6.88;;;;;;;;;;4929875;28;20038;-72
2022/07/31 04:08:39;;;;;;;17.10;7.18;;;;;;;;;;4928544;28;20042;-71
2022/07/31 04:11:05;;;;;;;14.90;6.68;;;;;;;;;;4930977;28;20695;-71
2022/07/31 04:13:30;;;;;;;19.88;7.60;;;;;;;;;;4929043;28;20859;-71
2022/07/31 04:15:58;;;;;;;21.25;9.23;;;;;;;;;;4929356;28;20031;-71
2022/07/31 04:18:23;;;;;;;20.23;9.73;;;;;;;;;;4929194;28;20194;-71
2022/07/31 04:20:48;;;;;;;16.25;8.15;;;;;;;;;;4929941;28;20487;-72
2022/07/31 04:23:14;;;;;;;17.02;7.07;;;;;;;;;;4928561;28;20134;-71
2022/07/31 04:25:39;;;;;;;21.25;7.55;;;;;;;;;;4929352;28;20049;-72
2022/07/31 04:28:05;;;;;;;17.77;6.82;;;;;;;;;;4929376;28;20049;-71
2022/07/31 04:30:30;;;;;;;19.48;6.85;;;;;;;;;;4930693;28;20035;-71
2022/07/31 04:32:58;;;;;;;22.38;7.20;;;;;;;;;;4930360;28;20038;-70
2022/07/31 04:35:26;;;;;;;15.85;6.93;;;;;;;;;;4929012;28;20045;-72
2022/07/31 04:37:51;;;;;;;22.02;6.43;;;;;;;;;;4930054;28;20116;-72
2022/07/31 04:40:17;;;;;;;22.05;6.40;;;;;;;;;;4930545;28;20053;-73
2022/07/31 04:42:42;;;;;;;18.55;6.13;;;;;;;;;;4929606;28;20710;-71
2022/07/31 04:45:08;;;;;;;18.02;6.72;;;;;;;;;;4929729;28;20081;-73
2022/07/31 04:47:33;;;;;;;19.23;6.38;;;;;;;;;;4931596;28;20035;-68
2022/07/31 04:49:58;;;;;;;15.02;6.72;;;;;;;;;;4929158;28;20106;-69
2022/07/31 04:52:24;;;;;;;12.13;5.93;;;;;;;;;;4931487;28;20047;-70
2022/07/31 04:54:49;;;;;;;19.55;6.05;;;;;;;;;;4923706;28;20124;-71
2022/07/31 04:57:15;;;;;;;14.43;5.75;;;;;;;;;;4931756;28;20034;-70
2022/07/31 04:59:40;;;;;;;19.30;5.70;;;;;;;;;;4930391;28;20042;-69
2022/07/31 05:02:05;;;;;;;20.58;5.40;;;;;;;;;;4937695;28;20035;-69
2022/07/31 05:04:31;;;;;;;22.92;5.78;;;;;;;;;;4930805;28;20113;-70
2022/07/31 05:06:56;;;;;;;16.67;5.75;;;;;;;;;;4931587;28;20174;-70
2022/07/31 05:09:22;;;;;;;19.08;6.10;;;;;;;;;;4930258;28;20213;-69
2022/07/31 05:11:48;;;;;;;18.42;5.93;;;;;;;;;;4930850;28;20035;-71
2022/07/31 05:14:15;;;;;;;19.73;6.45;;;;;;;;;;4930614;28;20031;-72
2022/07/31 05:16:40;;;;;;;19.55;6.22;;;;;;;;;;4931047;28;20056;-70
2022/07/31 05:19:06;;;;;;;19.83;5.70;;;;;;;;;;4930407;28;20034;-70
2022/07/31 05:21:31;;;;;;;24.25;5.70;;;;;;;;;;4935059;28;21038;-71
2022/07/31 05:23:57;;;;;;;19.98;5.95;;;;;;;;;;4930851;28;20123;-70
2022/07/31 05:26:23;;;;;;;19.90;5.65;;;;;;;;;;4939943;28;20062;-71
2022/07/31 05:28:49;;;;;;;19.20;5.72;;;;;;;;;;4929243;28;20935;-70
2022/07/31 05:31:16;;;;;;;20.73;6.22;;;;;;;;;;4932051;28;20177;-70
2022/07/31 05:33:42;;;;;;;18.70;6.43;;;;;;;;;;4930527;28;20031;-71
2022/07/31 05:36:07;;;;;;;23.80;7.30;;;;;;;;;;4931050;28;20086;-69
2022/07/31 05:38:33;;;;;;;18.90;6.32;;;;;;;;;;4927577;28;20026;-70
2022/07/31 05:41:00;;;;;;;20.90;6.30;;;;;;;;;;4931151;28;20030;-69
2022/07/31 05:43:26;;;;;;;19.98;6.32;;;;;;;;;;4928781;28;20493;-71
2022/07/31 05:45:52;;;;;;;19.98;5.78;;;;;;;;;;4933108;28;20042;-71
2022/07/31 05:48:17;;;;;;;19.98;6.10;;;;;;;;;;4934195;28;20273;-70
2022/07/31 05:50:43;;;;;;;18.95;5.63;;;;;;;;;;4933836;28;20043;-71
2022/07/31 05:53:13;;;;;;;18.95;6.03;;;;;;;;;;4934976;28;20118;-71
2022/07/31 05:55:39;;;;;;;24.57;6.40;;;;;;;;;;4933552;28;20138;-69
2022/07/31 05:58:04;;;;;;;21.20;5.88;;;;;;;;;;4948547;28;20038;-69
2022/07/31 06:00:30;;;;;;;23.50;5.80;;;;;;;;;;4932752;28;20633;-68
2022/07/31 06:03:01;;;;;;;16.50;5.10;;;;;;;;;;4930538;28;20031;-70
2022/07/31 06:05:27;;;;;;;18.63;5.78;;;;;;;;;;4932807;28;20082;-71
2022/07/31 06:07:52;;;;;;;13.25;5.03;;;;;;;;;;4930724;28;20160;-68
2022/07/31 06:10:18;;;;;;;14.32;4.93;;;;;;;;;;4931754;28;20039;-70
2022/07/31 06:12:43;;;;;;;18.85;5.00;;;;;;;;;;4931160;28;20053;-71
2022/07/31 06:15:09;;;;;;;15.98;4.88;;;;;;;;;;4929873;28;20093;-71
2022/07/31 06:17:37;;;;;;;18.42;5.50;;;;;;;;;;4929979;28;20650;-69
2022/07/31 06:20:02;;;;;;;19.23;5.20;;;;;;;;;;4929922;28;20112;-71
2022/07/31 06:22:27;;;;;;;19.85;5.55;;;;;;;;;;4928820;28;20418;-70
2022/07/31 06:24:53;;;;;;;18.58;5.00;;;;;;;;;;4936121;28;20050;-70
2022/07/31 06:27:18;;;;;;;23.30;6.07;;;;;;;;;;4931160;28;20042;-69
2022/07/31 06:29:46;;;;;;;18.55;5.55;;;;;;;;;;4932333;28;20981;-70
2022/07/31 06:32:11;;;;;;;16.75;5.40;;;;;;;;;;4930552;28;20039;-70
2022/07/31 06:34:36;;;;;;;20.00;5.30;;;;;;;;;;4933886;28;20035;-71
2022/07/31 06:37:04;;;;;;;20.33;5.72;;;;;;;;;;4931864;28;20559;-69
2022/07/31 06:39:29;;;;;;;16.85;5.20;;;;;;;;;;4932242;28;20200;-70
2022/07/31 06:41:55;;;;;;;20.88;5.95;;;;;;;;;;4928288;28;21007;-70
2022/07/31 06:44:20;;;;;;;18.00;5.43;;;;;;;;;;4927264;28;20043;-69
2022/07/31 06:46:46;;;;;;;18.25;6.28;;;;;;;;;;4930966;28;20039;-69
2022/07/31 06:49:14;;;;;;;16.58;6.38;;;;;;;;;;4930548;28;20129;-70
2022/07/31 06:51:39;;;;;;;19.02;6.18;;;;;;;;;;4931598;28;20047;-71
2022/07/31 06:54:07;;;;;;;23.00;5.90;;;;;;;;;;4937194;28;20624;-69
2022/07/31 06:56:34;;;;;;;16.40;4.82;;;;;;;;;;4930575;28;20042;-70
2022/07/31 06:58:59;;;;;;;21.67;5.63;;;;;;;;;;4933615;28;20039;-70
2022/07/31 07:01:25;;;;;;;17.85;5.63;;;;;;;;;;4933178;28;20042;-65
2022/07/31 07:03:50;;;;;;;19.77;5.80;;;;;;;;;;4931965;28;20043;-69
2022/07/31 07:06:15;;;;;;;19.08;6.03;;;;;;;;;;4930454;28;20043;-70
2022/07/31 07:08:41;;;;;;;17.10;5.82;;;;;;;;;;4933515;28;20058;-69
2022/07/31 07:11:06;;;;;;;16.77;5.45;;;;;;;;;;4930797;28;20031;-69
2022/07/31 07:13:34;;;;;;;18.27;5.43;;;;;;;;;;4932032;28;20037;-71
2022/07/31 07:15:59;;;;;;;25.52;6.35;;;;;;;;;;4932030;28;20719;-68
2022/07/31 07:18:24;;;;;;;20.95;7.00;;;;;;;;;;4930419;28;20042;-69
2022/07/31 07:20:50;;;;;;;27.80;7.15;;;;;;;;;;4916840;28;20939;-66
2022/07/31 07:23:16;;;;;;;28.85;7.35;;;;;;;;;;4930493;28;20080;-67
2022/07/31 07:25:42;;;;;;;24.35;7.25;;;;;;;;;;4930684;28;20069;-68
2022/07/31 07:28:07;;;;;;;23.65;7.35;;;;;;;;;;4933686;28;20039;-67
2022/07/31 07:30:33;;;;;;;24.50;7.40;;;;;;;;;;4929723;28;20035;-68
2022/07/31 07:32:59;;;;;;;27.52;8.10;;;;;;;;;;4930487;28;22012;-68
2022/07/31 07:35:24;;;;;;;24.88;8.00;;;;;;;;;;4930781;28;20561;-67
2022/07/31 07:37:50;;;;;;;22.73;7.72;;;;;;;;;;4936000;28;20041;-69
2022/07/31 07:40:16;;;;;;;26.35;7.57;;;;;;;;;;4929728;28;20129;-68
2022/07/31 07:42:44;;;;;;;23.17;8.05;;;;;;;;;;4929043;28;20042;-68
2022/07/31 07:45:11;;;;;;;21.83;7.60;;;;;;;;;;4929747;28;20054;-68
2022/07/31 07:47:36;;;;;;;27.27;7.97;;;;;;;;;;4944060;28;20034;-70
2022/07/31 07:50:02;;;;;;;19.23;7.15;;;;;;;;;;4937234;28;20035;-68
2022/07/31 07:52:27;;;;;;;23.08;7.03;;;;;;;;;;4927507;28;20034;-67
2022/07/31 07:54:53;;;;;;;19.88;7.13;;;;;;;;;;4929299;28;20035;-69
2022/07/31 07:57:19;;;;;;;24.88;7.50;;;;;;;;;;4937437;28;20041;-68
2022/07/31 07:59:47;;;;;;;19.73;7.15;;;;;;;;;;4930262;28;20570;-71
2022/07/31 08:02:13;;;;;;;21.65;7.47;;;;;;;;;;4929610;28;20144;-70
2022/07/31 08:04:40;;;;;;;20.55;7.38;;;;;;;;;;4927229;28;20047;-68
2022/07/31 08:07:06;;;;;;;18.95;7.35;;;;;;;;;;4928900;28;20050;-67
2022/07/31 08:09:32;;;;;;;25.13;8.23;;;;;;;;;;4931129;28;20082;-70
2022/07/31 08:11:57;;;;;;;24.50;8.40;;;;;;;;;;4928833;28;20125;-69
2022/07/31 08:14:22;;;;;;;29.63;8.35;;;;;;;;;;4930263;28;20653;-69
2022/07/31 08:16:48;;;;;;;19.98;8.05;;;;;;;;;;4930457;28;20129;-71
2022/07/31 08:19:16;;;;;;;21.50;7.53;;;;;;;;;;4929743;28;20106;-69
2022/07/31 08:21:44;;;;;;;19.58;7.25;;;;;;;;;;4929150;28;20168;-67
2022/07/31 08:24:10;;;;;;;29.50;8.13;;;;;;;;;;4929705;28;22368;-67
2022/07/31 08:29:22;;;;;;;25.83;8.35;;;;;;;;;;4926870;28;20042;-67
2022/07/31 08:31:48;;;;;;;21.17;8.30;;;;;;;;;;4927909;28;20191;-68
2022/07/31 08:34:16;;;;;;;22.50;8.48;;;;;;;;;;4929687;28;20104;-69
2022/07/31 08:36:41;;;;;;;19.45;8.75;;;;;;;;;;4930606;28;20049;-67
2022/07/31 08:39:07;;;;;;;24.42;8.40;;;;;;;;;;4930904;28;20108;-67
2022/07/31 08:41:32;;;;;;;25.20;8.23;;;;;;;;;;4929724;28;20823;-67
2022/07/31 08:43:58;;;;;;;24.20;8.43;;;;;;;;;;4944330;28;20169;-68
2022/07/31 08:46:24;;;;;;;18.25;8.32;;;;;;;;;;4931030;28;20064;-65
2022/07/31 08:48:52;;;;;;;15.35;8.00;;;;;;;;;;4930471;28;20035;-66
2022/07/31 08:51:17;;;;;;;24.02;8.82;;;;;;;;;;4929309;28;20035;-66
2022/07/31 08:53:44;;;;;;;17.90;8.20;;;;;;;;;;4930140;28;20034;-67
2022/07/31 08:56:09;;;;;;;16.65;8.50;;;;;;;;;;4930560;28;20843;-66
2022/07/31 08:58:34;;;;;;;16.58;7.85;;;;;;;;;;4944198;28;20101;-68
2022/07/31 09:01:00;;;;;;;17.48;8.18;;;;;;;;;;4929725;28;21522;-67
2022/07/31 09:03:28;;;;;;;16.00;7.88;;;;;;;;;;4929832;28;21204;-68
2022/07/31 09:05:54;;;;;;;14.55;8.05;;;;;;;;;;4929885;28;20043;-65
2022/07/31 09:08:20;;;;;;;18.15;8.75;;;;;;;;;;4930248;28;20312;-67
2022/07/31 09:10:45;;;;;;;21.90;8.95;;;;;;;;;;4929453;28;20038;-66
2022/07/31 09:13:18;;;;;;;21.63;9.27;;;;;;;;;;4929875;28;20035;-67
2022/07/31 09:15:44;;;;;;;20.58;8.60;;;;;;;;;;4929026;28;20035;-67
2022/07/31 09:18:23;;;;;;;26.15;9.77;;;;;;;;;;4929558;28;20065;-69
2022/07/31 09:20:55;;;;;;;28.92;9.85;;;;;;;;;;4933287;28;20030;-68
2022/07/31 09:23:21;;;;;;;23.13;10.30;;;;;;;;;;4933813;28;20129;-67
2022/07/31 09:25:50;;;;;;;27.88;10.65;;;;;;;;;;4933753;28;20881;-67
2022/07/31 09:28:18;;;;;;;31.10;10.77;;;;;;;;;;4932697;28;20839;-65
2022/07/31 09:30:52;;;;;;;30.15;11.38;;;;;;;;;;4936447;28;21023;-67
2022/07/31 09:33:20;;;;;;;27.95;10.40;;;;;;;;;;4936081;28;20039;-66
2022/07/31 09:35:49;;;;;;;30.17;11.25;;;;;;;;;;4931831;28;20854;-67
2022/07/31 09:38:15;;;;;;;30.58;11.40;;;;;;;;;;4932773;28;20039;-68
2022/07/31 09:40:42;;;;;;;31.83;12.07;;;;;;;;;;4933511;28;20664;-68
2022/07/31 09:43:23;;;;;;;29.75;11.13;;;;;;;;;;4941181;28;20137;-68
2022/07/31 09:45:58;;;;;;;32.25;11.50;;;;;;;;;;4937571;28;20556;-67
2022/07/31 09:48:24;;;;;;;34.08;11.85;;;;;;;;;;4935432;28;20030;-68
2022/07/31 09:50:54;;;;;;;31.20;11.25;;;;;;;;;;4938009;28;20046;-68
2022/07/31 09:53:19;;;;;;;31.83;12.02;;;;;;;;;;4933226;28;20046;-67
2022/07/31 09:55:48;;;;;;;38.83;13.57;;;;;;;;;;4934235;28;20038;-68
2022/07/31 09:58:14;;;;;;;39.05;11.70;;;;;;;;;;4932038;28;20027;-68
2022/07/31 10:00:39;;;;;;;31.55;12.15;;;;;;;;;;4932422;28;20159;-68
2022/07/31 10:03:05;;;;;;;30.58;12.25;;;;;;;;;;4931998;28;20153;-67
2022/07/31 10:05:31;;;;;;;33.17;12.40;;;;;;;;;;4932113;28;20046;-71
2022/07/31 10:08:01;;;;;;;30.73;12.25;;;;;;;;;;4940200;28;20039;-69
2022/07/31 10:10:28;;;;;;;30.92;10.85;;;;;;;;;;4934504;28;20120;-68
2022/07/31 10:12:55;;;;;;;25.67;11.52;;;;;;;;;;4931376;28;20043;-68
2022/07/31 10:15:23;;;;;;;26.77;12.10;;;;;;;;;;4930713;28;20898;-69
2022/07/31 10:17:50;;;;;;;27.70;12.75;;;;;;;;;;4931238;28;20760;-68
2022/07/31 10:20:20;;;;;;;28.17;13.77;;;;;;;;;;4933778;28;20035;-70
2022/07/31 10:22:52;;;;;;;29.33;12.18;;;;;;;;;;4932427;28;20035;-70
2022/07/31 10:25:23;;;;;;;25.92;11.05;;;;;;;;;;4932032;28;20169;-67
2022/07/31 10:27:49;;;;;;;30.63;12.15;;;;;;;;;;4936078;28;20142;-68
2022/07/31 10:30:14;;;;;;;30.13;12.50;;;;;;;;;;4931720;28;22338;-69
2022/07/31 10:32:41;;;;;;;25.17;11.20;;;;;;;;;;4931936;28;20038;-68
2022/07/31 10:35:06;;;;;;;26.88;12.40;;;;;;;;;;4931318;28;20185;-69
2022/07/31 10:37:49;;;;;;;31.83;12.48;;;;;;;;;;4945140;28;20042;-68
2022/07/31 10:40:15;;;;;;;23.17;11.35;;;;;;;;;;4931829;28;20043;-67
2022/07/31 10:42:41;;;;;;;21.88;10.43;;;;;;;;;;4932345;28;20069;-67
2022/07/31 10:45:10;;;;;;;28.17;11.85;;;;;;;;;;4932186;28;21948;-66
2022/07/31 10:47:36;;;;;;;23.83;10.52;;;;;;;;;;4930676;28;20108;-68
2022/07/31 10:50:02;;;;;;;26.85;10.77;;;;;;;;;;4919702;28;20043;-67
2022/07/31 10:52:37;;;;;;;28.70;11.00;;;;;;;;;;4935764;28;20141;-68
2022/07/31 10:55:22;;;;;;;29.25;10.60;;;;;;;;;;4932181;28;20073;-64
2022/07/31 10:57:50;;;;;;;22.35;9.30;;;;;;;;;;4932041;28;20038;-62
2022/07/31 11:00:17;;;;;;;29.42;9.77;;;;;;;;;;4931195;28;20038;-65
2022/07/31 11:02:42;;;;;;;24.92;10.30;;;;;;;;;;4945846;28;21138;-64
2022/07/31 11:05:09;;;;;;;26.55;10.02;;;;;;;;;;4936046;28;20071;-63
2022/07/31 11:07:34;;;;;;;29.92;10.65;;;;;;;;;;4932565;28;20034;-62
2022/07/31 11:10:09;;;;;;;25.00;9.93;;;;;;;;;;4930876;28;20104;-64
2022/07/31 11:12:34;;;;;;;32.80;10.57;;;;;;;;;;4929212;28;20042;-63
2022/07/31 11:15:00;;;;;;;28.23;11.07;;;;;;;;;;4927578;28;20062;-62
2022/07/31 11:17:32;;;;;;;29.23;11.23;;;;;;;;;;4927736;28;21196;-62
2022/07/31 11:19:58;;;;;;;27.55;11.10;;;;;;;;;;4927985;28;20926;-62
2022/07/31 11:22:23;;;;;;;29.27;11.48;;;;;;;;;;4929387;28;20039;-62
2022/07/31 11:24:53;;;;;;;25.85;10.63;;;;;;;;;;4928766;28;20086;-62
2022/07/31 11:27:28;;;;;;;32.13;11.32;;;;;;;;;;4928970;28;20132;-61
2022/07/31 11:29:53;;;;;;;28.15;10.90;;;;;;;;;;4929034;28;20053;-63
2022/07/31 11:32:18;;;;;;;30.55;10.57;;;;;;;;;;4944271;28;20042;-62
2022/07/31 11:34:53;;;;;;;23.50;10.30;;;;;;;;;;4930689;28;20035;-63
2022/07/31 11:37:21;;;;;;;27.23;11.13;;;;;;;;;;4930839;28;20044;-61
2022/07/31 11:39:49;;;;;;;32.53;11.18;;;;;;;;;;4930320;28;20038;-61
2022/07/31 11:42:16;;;;;;;32.80;11.27;;;;;;;;;;4929151;28;20038;-64
2022/07/31 11:44:42;;;;;;;21.75;10.68;;;;;;;;;;4930916;28;20056;-62
2022/07/31 11:47:08;;;;;;;27.13;11.32;;;;;;;;;;4930743;28;22360;-63
2022/07/31 11:49:39;;;;;;;22.73;11.93;;;;;;;;;;4930184;28;20207;-63
2022/07/31 11:52:06;;;;;;;25.55;11.60;;;;;;;;;;4929880;28;20039;-63
2022/07/31 11:54:32;;;;;;;24.63;13.57;;;;;;;;;;4944528;28;20182;-63
2022/07/31 11:56:58;;;;;;;30.58;12.32;;;;;;;;;;4928918;28;20034;-62
2022/07/31 11:59:33;;;;;;;23.90;12.68;;;;;;;;;;4938557;28;20023;-62
2022/07/31 12:02:09;;;;;;;27.77;13.27;;;;;;;;;;4943899;28;20780;-62
2022/07/31 12:04:38;;;;;;;29.27;13.60;;;;;;;;;;4938646;28;20043;-62
2022/07/31 12:07:03;;;;;;;30.02;14.43;;;;;;;;;;4927712;28;20400;-64
2022/07/31 12:09:29;;;;;;;33.33;14.32;;;;;;;;;;4933201;28;20098;-65
2022/07/31 12:11:55;;;;;;;27.35;13.85;;;;;;;;;;4929482;28;20069;-66
2022/07/31 12:14:47;;;;;;;22.25;12.80;;;;;;;;;;4932866;28;20081;-62
2022/07/31 12:17:19;;;;;;;26.27;13.68;;;;;;;;;;4927630;28;20077;-64
2022/07/31 12:19:45;;;;;;;32.00;13.85;;;;;;;;;;4943868;28;20579;-64
2022/07/31 12:22:14;;;;;;;37.20;14.82;;;;;;;;;;4933543;28;20035;-63
2022/07/31 12:24:40;;;;;;;33.03;14.30;;;;;;;;;;4927246;28;20572;-64
2022/07/31 12:27:06;;;;;;;25.75;12.80;;;;;;;;;;4928442;28;20042;-65
2022/07/31 12:29:32;;;;;;;29.02;14.30;;;;;;;;;;4924628;28;20077;-62
2022/07/31 12:32:01;;;;;;;25.13;11.95;;;;;;;;;;4927504;28;20118;-63
2022/07/31 12:34:27;;;;;;;32.88;12.63;;;;;;;;;;4927646;28;20035;-62
2022/07/31 12:37:12;;;;;;;28.67;11.70;;;;;;;;;;4948102;28;20030;-64
2022/07/31 12:40:00;;;;;;;22.23;11.13;;;;;;;;;;4926667;28;20605;-63
2022/07/31 12:42:26;;;;;;;28.92;11.07;;;;;;;;;;4927458;28;20120;-66
2022/07/31 12:44:55;;;;;;;26.83;11.05;;;;;;;;;;4926694;28;20081;-63
2022/07/31 12:47:20;;;;;;;30.33;11.63;;;;;;;;;;4927288;28;20869;-63
2022/07/31 12:49:45;;;;;;;21.75;8.85;;;;;;;;;;4937624;28;20146;-64
2022/07/31 12:52:11;;;;;;;27.05;11.43;;;;;;;;;;4927576;28;20038;-63
2022/07/31 12:54:36;;;;;;;20.10;9.68;;;;;;;;;;4928945;28;20034;-62
2022/07/31 12:57:02;;;;;;;30.35;11.57;;;;;;;;;;4946670;28;20038;-64
2022/07/31 12:59:27;;;;;;;24.15;12.57;;;;;;;;;;4933225;28;20031;-63
2022/07/31 13:01:52;;;;;;;24.63;11.90;;;;;;;;;;4940536;28;20043;-65
2022/07/31 13:04:17;;;;;;;29.63;12.23;;;;;;;;;;4931967;28;20038;-64
2022/07/31 13:06:43;;;;;;;33.10;14.63;;;;;;;;;;4933217;28;22664;-64
2022/07/31 13:09:08;;;;;;;34.80;13.82;;;;;;;;;;4931952;28;20023;-64
2022/07/31 13:11:33;;;;;;;25.67;12.85;;;;;;;;;;4933980;28;20855;-65
2022/07/31 13:13:59;;;;;;;32.80;12.57;;;;;;;;;;4932382;28;20034;-66
2022/07/31 13:16:26;;;;;;;28.45;12.00;;;;;;;;;;4932345;28;20031;-65
2022/07/31 13:18:51;;;;;;;32.53;12.80;;;;;;;;;;4941201;28;20039;-62
2022/07/31 13:21:17;;;;;;;35.17;11.68;;;;;;;;;;4933827;28;20037;-62
2022/07/31 13:23:42;;;;;;;30.38;12.30;;;;;;;;;;4933666;28;20039;-63
2022/07/31 13:26:08;;;;;;;25.23;11.15;;;;;;;;;;4932259;28;20052;-63
2022/07/31 13:28:37;;;;;;;31.17;12.35;;;;;;;;;;4932299;28;20046;-65
2022/07/31 13:31:05;;;;;;;28.02;11.70;;;;;;;;;;4934813;28;20031;-64
2022/07/31 13:33:30;;;;;;;25.70;11.23;;;;;;;;;;4934777;28;20038;-65
2022/07/31 13:35:55;;;;;;;23.63;11.60;;;;;;;;;;4933393;28;20101;-65
2022/07/31 13:38:23;;;;;;;30.13;12.13;;;;;;;;;;4933128;28;20043;-63
2022/07/31 13:43:33;;;;;;;31.65;10.38;;;;;;;;;;4931169;28;20038;-64
2022/07/31 13:46:02;;;;;;;22.30;8.90;;;;;;;;;;4934890;28;20137;-64
2022/07/31 13:48:27;;;;;;;24.25;9.93;;;;;;;;;;4931130;28;20050;-65
2022/07/31 13:50:53;;;;;;;24.17;9.38;;;;;;;;;;4947490;28;20888;-64
2022/07/31 13:53:18;;;;;;;25.15;9.00;;;;;;;;;;4932505;28;20045;-63
2022/07/31 13:55:44;;;;;;;21.77;8.50;;;;;;;;;;4933363;28;21425;-65
2022/07/31 13:58:09;;;;;;;29.17;9.15;;;;;;;;;;4933155;28;20034;-63
2022/07/31 14:00:35;;;;;;;25.73;8.90;;;;;;;;;;4930931;28;20136;-63
2022/07/31 14:03:00;;;;;;;19.55;8.68;;;;;;;;;;4931809;28;20062;-64
2022/07/31 14:05:26;;;;;;;24.33;9.20;;;;;;;;;;4931951;28;20921;-63
2022/07/31 14:07:51;;;;;;;27.92;9.75;;;;;;;;;;4931935;28;20166;-62
2022/07/31 14:10:17;;;;;;;31.63;10.35;;;;;;;;;;4934420;28;20039;-62
2022/07/31 14:12:42;;;;;;;29.10;10.00;;;;;;;;;;4931406;28;20072;-64
2022/07/31 14:15:08;;;;;;;30.00;11.32;;;;;;;;;;4934402;28;20759;-62
2022/07/31 14:17:35;;;;;;;32.67;12.15;;;;;;;;;;4933052;28;20045;-63
2022/07/31 14:20:01;;;;;;;39.05;11.88;;;;;;;;;;4933382;28;20034;-63
2022/07/31 14:22:27;;;;;;;32.22;12.23;;;;;;;;;;4931487;28;20037;-64
2022/07/31 14:24:53;;;;;;;35.50;11.80;;;;;;;;;;4933047;28;20050;-62
2022/07/31 14:27:18;;;;;;;25.88;11.15;;;;;;;;;;4939727;28;20069;-65
2022/07/31 14:29:44;;;;;;;26.52;11.50;;;;;;;;;;4931706;28;20795;-64